sensor_id;sensor_type;location;lat;lon;timestamp;P1;durP1;ratioP1;P2;durP2;ratioP2
20997;SDS011;10657;51.276;6.390;2023-05-10T00:00:44;13.27;;;9.68;;
20997;SDS011;10657;51.276;6.390;2023-05-10T00:03:11;11.45;;;7.40;;
20997;SDS011;10657;51.276;6.390;2023-05-10T00:05:38;11.98;;;8.02;;
20997;SDS011;10657;51.276;6.390;2023-05-10T00:08:05;15.65;;;8.07;;
20997;SDS011;10657;51.276;6.390;2023-05-10T00:10:31;12.13;;;8.20;;
20997;SDS011;10657;51.276;6.390;2023-05-10T00:12:58;11.82;;;8.02;;
20997;SDS011;10657;51.276;6.390;2023-05-10T00:15:25;12.65;;;8.73;;
20997;SDS011;10657;51.276;6.390;2023-05-10T00:17:51;12.02;;;8.20;;
20997;SDS011;10657;51.276;6.390;2023-05-10T00:20:18;12.43;;;7.97;;
20997;SDS011;10657;51.276;6.390;2023-05-10T00:22:45;12.88;;;8.10;;
20997;SDS011;10657;51.276;6.390;2023-05-10T00:25:11;12.77;;;8.13;;
20997;SDS011;10657;51.276;6.390;2023-05-10T00:27:38;12.80;;;7.95;;
20997;SDS011;10657;51.276;6.390;2023-05-10T00:30:05;10.93;;;7.45;;
20997;SDS011;10657;51.276;6.390;2023-05-10T00:32:32;11.90;;;6.85;;
20997;SDS011;10657;51.276;6.390;2023-05-10T00:34:59;12.63;;;7.07;;
20997;SDS011;10657;51.276;6.390;2023-05-10T00:37:26;13.55;;;6.97;;
20997;SDS011;10657;51.276;6.390;2023-05-10T00:39:52;11.63;;;6.40;;
20997;SDS011;10657;51.276;6.390;2023-05-10T00:42:19;10.23;;;6.88;;
20997;SDS011;10657;51.276;6.390;2023-05-10T00:44:46;10.55;;;6.82;;
20997;SDS011;10657;51.276;6.390;2023-05-10T00:47:12;9.90;;;6.15;;
20997;SDS011;10657;51.276;6.390;2023-05-10T00:49:39;9.93;;;5.90;;
20997;SDS011;10657;51.276;6.390;2023-05-10T00:52:08;9.55;;;5.30;;
20997;SDS011;10657;51.276;6.390;2023-05-10T00:54:35;9.38;;;5.60;;
20997;SDS011;10657;51.276;6.390;2023-05-10T00:57:02;11.25;;;5.70;;
20997;SDS011;10657;51.276;6.390;2023-05-10T00:59:29;9.25;;;5.35;;
20997;SDS011;10657;51.276;6.390;2023-05-10T01:01:56;8.60;;;5.00;;
20997;SDS011;10657;51.276;6.390;2023-05-10T01:04:23;13.80;;;5.10;;
20997;SDS011;10657;51.276;6.390;2023-05-10T01:06:52;9.18;;;5.38;;
20997;SDS011;10657;51.276;6.390;2023-05-10T01:09:20;9.15;;;4.80;;
20997;SDS011;10657;51.276;6.390;2023-05-10T01:11:47;8.73;;;4.78;;
20997;SDS011;10657;51.276;6.390;2023-05-10T01:14:15;9.52;;;5.20;;
20997;SDS011;10657;51.276;6.390;2023-05-10T01:16:46;8.65;;;4.75;;
20997;SDS011;10657;51.276;6.390;2023-05-10T01:19:24;8.88;;;5.15;;
20997;SDS011;10657;51.276;6.390;2023-05-10T01:30:08;7.38;;;3.78;;
20997;SDS011;10657;51.276;6.390;2023-05-10T01:38:07;8.10;;;3.85;;
20997;SDS011;10657;51.276;6.390;2023-05-10T01:40:48;8.93;;;4.40;;
20997;SDS011;10657;51.276;6.390;2023-05-10T01:43:28;7.60;;;3.97;;
20997;SDS011;10657;51.276;6.390;2023-05-10T01:46:02;7.72;;;3.95;;
20997;SDS011;10657;51.276;6.390;2023-05-10T01:48:40;25.58;;;5.93;;
20997;SDS011;10657;51.276;6.390;2023-05-10T01:51:15;7.85;;;4.43;;
20997;SDS011;10657;51.276;6.390;2023-05-10T01:53:56;8.35;;;4.65;;
20997;SDS011;10657;51.276;6.390;2023-05-10T01:56:28;8.60;;;4.72;;
20997;SDS011;10657;51.276;6.390;2023-05-10T01:58:57;10.25;;;4.72;;
20997;SDS011;10657;51.276;6.390;2023-05-10T02:01:26;9.13;;;4.90;;
20997;SDS011;10657;51.276;6.390;2023-05-10T02:03:53;8.13;;;4.93;;
20997;SDS011;10657;51.276;6.390;2023-05-10T02:06:21;8.48;;;5.22;;
20997;SDS011;10657;51.276;6.390;2023-05-10T02:08:50;8.35;;;4.88;;
20997;SDS011;10657;51.276;6.390;2023-05-10T02:11:18;8.52;;;5.00;;
20997;SDS011;10657;51.276;6.390;2023-05-10T02:13:48;9.40;;;5.97;;
20997;SDS011;10657;51.276;6.390;2023-05-10T02:16:16;11.20;;;5.68;;
20997;SDS011;10657;51.276;6.390;2023-05-10T02:18:44;9.80;;;5.43;;
20997;SDS011;10657;51.276;6.390;2023-05-10T02:21:11;9.75;;;6.10;;
20997;SDS011;10657;51.276;6.390;2023-05-10T02:23:40;11.20;;;6.50;;
20997;SDS011;10657;51.276;6.390;2023-05-10T02:26:07;10.85;;;6.63;;
20997;SDS011;10657;51.276;6.390;2023-05-10T02:28:34;10.38;;;6.55;;
20997;SDS011;10657;51.276;6.390;2023-05-10T02:31:04;9.82;;;6.13;;
20997;SDS011;10657;51.276;6.390;2023-05-10T02:33:32;11.63;;;6.95;;
20997;SDS011;10657;51.276;6.390;2023-05-10T02:36:01;10.65;;;6.40;;
20997;SDS011;10657;51.276;6.390;2023-05-10T02:38:29;10.93;;;6.80;;
20997;SDS011;10657;51.276;6.390;2023-05-10T02:40:59;10.75;;;6.72;;
20997;SDS011;10657;51.276;6.390;2023-05-10T02:43:26;11.68;;;7.18;;
20997;SDS011;10657;51.276;6.390;2023-05-10T02:45:56;13.25;;;6.68;;
20997;SDS011;10657;51.276;6.390;2023-05-10T02:48:23;11.05;;;6.22;;
20997;SDS011;10657;51.276;6.390;2023-05-10T02:50:50;10.50;;;6.40;;
20997;SDS011;10657;51.276;6.390;2023-05-10T02:53:23;10.88;;;6.25;;
20997;SDS011;10657;51.276;6.390;2023-05-10T02:56:01;10.52;;;6.40;;
20997;SDS011;10657;51.276;6.390;2023-05-10T02:58:33;10.68;;;6.18;;
20997;SDS011;10657;51.276;6.390;2023-05-10T03:01:00;10.43;;;6.07;;
20997;SDS011;10657;51.276;6.390;2023-05-10T03:03:26;10.65;;;6.40;;
20997;SDS011;10657;51.276;6.390;2023-05-10T03:05:53;11.38;;;7.22;;
20997;SDS011;10657;51.276;6.390;2023-05-10T03:08:22;11.98;;;7.72;;
20997;SDS011;10657;51.276;6.390;2023-05-10T03:13:36;13.63;;;8.98;;
20997;SDS011;10657;51.276;6.390;2023-05-10T03:16:08;13.25;;;8.75;;
20997;SDS011;10657;51.276;6.390;2023-05-10T03:18:42;13.93;;;8.77;;
20997;SDS011;10657;51.276;6.390;2023-05-10T03:21:13;15.75;;;10.15;;
20997;SDS011;10657;51.276;6.390;2023-05-10T03:23:45;17.38;;;10.68;;
20997;SDS011;10657;51.276;6.390;2023-05-10T03:26:24;20.48;;;13.70;;
20997;SDS011;10657;51.276;6.390;2023-05-10T03:28:53;19.40;;;12.23;;
20997;SDS011;10657;51.276;6.390;2023-05-10T03:31:21;17.85;;;12.32;;
20997;SDS011;10657;51.276;6.390;2023-05-10T03:33:48;21.73;;;14.70;;
20997;SDS011;10657;51.276;6.390;2023-05-10T03:36:17;21.95;;;13.60;;
20997;SDS011;10657;51.276;6.390;2023-05-10T03:38:44;19.85;;;14.32;;
20997;SDS011;10657;51.276;6.390;2023-05-10T03:41:10;22.50;;;15.18;;
20997;SDS011;10657;51.276;6.390;2023-05-10T03:43:37;21.88;;;15.23;;
20997;SDS011;10657;51.276;6.390;2023-05-10T03:46:04;24.73;;;13.50;;
20997;SDS011;10657;51.276;6.390;2023-05-10T03:48:32;22.77;;;15.88;;
20997;SDS011;10657;51.276;6.390;2023-05-10T03:50:59;20.23;;;13.75;;
20997;SDS011;10657;51.276;6.390;2023-05-10T03:53:26;21.98;;;15.15;;
20997;SDS011;10657;51.276;6.390;2023-05-10T03:55:53;23.83;;;15.18;;
20997;SDS011;10657;51.276;6.390;2023-05-10T03:58:19;23.15;;;14.55;;
20997;SDS011;10657;51.276;6.390;2023-05-10T04:00:46;22.30;;;14.60;;
20997;SDS011;10657;51.276;6.390;2023-05-10T04:03:13;20.83;;;14.32;;
20997;SDS011;10657;51.276;6.390;2023-05-10T04:05:39;22.27;;;16.05;;
20997;SDS011;10657;51.276;6.390;2023-05-10T04:08:06;20.92;;;14.02;;
20997;SDS011;10657;51.276;6.390;2023-05-10T04:10:33;21.30;;;14.52;;
20997;SDS011;10657;51.276;6.390;2023-05-10T04:13:00;21.30;;;14.45;;
20997;SDS011;10657;51.276;6.390;2023-05-10T04:15:27;23.00;;;13.65;;
20997;SDS011;10657;51.276;6.390;2023-05-10T04:17:53;21.00;;;14.20;;
20997;SDS011;10657;51.276;6.390;2023-05-10T04:20:20;20.65;;;13.15;;
20997;SDS011;10657;51.276;6.390;2023-05-10T04:22:47;23.10;;;14.73;;
20997;SDS011;10657;51.276;6.390;2023-05-10T04:25:13;24.00;;;13.73;;
20997;SDS011;10657;51.276;6.390;2023-05-10T04:27:40;20.88;;;14.10;;
20997;SDS011;10657;51.276;6.390;2023-05-10T04:30:07;26.48;;;16.45;;
20997;SDS011;10657;51.276;6.390;2023-05-10T04:32:34;23.73;;;14.38;;
20997;SDS011;10657;51.276;6.390;2023-05-10T04:35:00;22.13;;;14.43;;
20997;SDS011;10657;51.276;6.390;2023-05-10T04:37:29;23.23;;;15.65;;
20997;SDS011;10657;51.276;6.390;2023-05-10T04:39:56;24.70;;;16.15;;
20997;SDS011;10657;51.276;6.390;2023-05-10T04:42:23;22.65;;;15.43;;
20997;SDS011;10657;51.276;6.390;2023-05-10T04:44:49;24.42;;;14.90;;
20997;SDS011;10657;51.276;6.390;2023-05-10T04:47:16;23.10;;;15.27;;
20997;SDS011;10657;51.276;6.390;2023-05-10T04:49:43;22.77;;;14.85;;
20997;SDS011;10657;51.276;6.390;2023-05-10T04:52:09;24.10;;;15.20;;
20997;SDS011;10657;51.276;6.390;2023-05-10T04:54:37;23.10;;;14.32;;
20997;SDS011;10657;51.276;6.390;2023-05-10T04:57:03;22.90;;;14.82;;
20997;SDS011;10657;51.276;6.390;2023-05-10T04:59:30;21.52;;;12.77;;
20997;SDS011;10657;51.276;6.390;2023-05-10T05:01:57;22.23;;;13.75;;
20997;SDS011;10657;51.276;6.390;2023-05-10T05:04:24;20.65;;;13.60;;
20997;SDS011;10657;51.276;6.390;2023-05-10T05:06:51;25.55;;;13.48;;
20997;SDS011;10657;51.276;6.390;2023-05-10T05:09:19;27.33;;;14.93;;
20997;SDS011;10657;51.276;6.390;2023-05-10T05:11:45;24.38;;;15.45;;
20997;SDS011;10657;51.276;6.390;2023-05-10T05:14:12;26.77;;;16.63;;
20997;SDS011;10657;51.276;6.390;2023-05-10T05:16:39;26.13;;;14.32;;
20997;SDS011;10657;51.276;6.390;2023-05-10T05:19:06;27.48;;;17.02;;
20997;SDS011;10657;51.276;6.390;2023-05-10T05:21:32;33.20;;;17.88;;
20997;SDS011;10657;51.276;6.390;2023-05-10T05:23:59;30.02;;;16.45;;
20997;SDS011;10657;51.276;6.390;2023-05-10T05:26:26;33.83;;;18.40;;
20997;SDS011;10657;51.276;6.390;2023-05-10T05:28:53;29.20;;;16.30;;
20997;SDS011;10657;51.276;6.390;2023-05-10T05:31:20;34.30;;;17.33;;
20997;SDS011;10657;51.276;6.390;2023-05-10T05:33:47;33.95;;;18.83;;
20997;SDS011;10657;51.276;6.390;2023-05-10T05:36:14;32.22;;;17.13;;
20997;SDS011;10657;51.276;6.390;2023-05-10T05:38:40;30.40;;;16.73;;
20997;SDS011;10657;51.276;6.390;2023-05-10T05:41:07;27.40;;;14.98;;
20997;SDS011;10657;51.276;6.390;2023-05-10T05:43:34;29.15;;;15.07;;
20997;SDS011;10657;51.276;6.390;2023-05-10T05:46:03;31.27;;;16.33;;
20997;SDS011;10657;51.276;6.390;2023-05-10T05:48:30;31.65;;;16.33;;
20997;SDS011;10657;51.276;6.390;2023-05-10T05:50:57;28.80;;;15.10;;
20997;SDS011;10657;51.276;6.390;2023-05-10T05:53:24;28.92;;;14.45;;
20997;SDS011;10657;51.276;6.390;2023-05-10T05:55:51;24.67;;;13.50;;
20997;SDS011;10657;51.276;6.390;2023-05-10T05:58:20;27.40;;;13.45;;
20997;SDS011;10657;51.276;6.390;2023-05-10T06:00:47;23.27;;;14.35;;
20997;SDS011;10657;51.276;6.390;2023-05-10T06:03:14;26.23;;;13.82;;
20997;SDS011;10657;51.276;6.390;2023-05-10T06:05:41;25.17;;;13.10;;
20997;SDS011;10657;51.276;6.390;2023-05-10T06:08:08;22.88;;;13.13;;
20997;SDS011;10657;51.276;6.390;2023-05-10T06:10:35;24.08;;;13.20;;
20997;SDS011;10657;51.276;6.390;2023-05-10T06:13:01;29.08;;;14.45;;
20997;SDS011;10657;51.276;6.390;2023-05-10T06:15:28;27.20;;;15.00;;
20997;SDS011;10657;51.276;6.390;2023-05-10T06:17:55;23.77;;;13.40;;
20997;SDS011;10657;51.276;6.390;2023-05-10T06:20:22;22.33;;;14.38;;
20997;SDS011;10657;51.276;6.390;2023-05-10T06:22:49;25.00;;;14.57;;
20997;SDS011;10657;51.276;6.390;2023-05-10T06:25:15;27.70;;;14.63;;
20997;SDS011;10657;51.276;6.390;2023-05-10T06:27:44;27.38;;;15.68;;
20997;SDS011;10657;51.276;6.390;2023-05-10T06:30:16;25.25;;;15.40;;
20997;SDS011;10657;51.276;6.390;2023-05-10T06:32:42;23.88;;;14.95;;
20997;SDS011;10657;51.276;6.390;2023-05-10T06:35:11;28.80;;;16.25;;
20997;SDS011;10657;51.276;6.390;2023-05-10T06:37:37;31.05;;;17.60;;
20997;SDS011;10657;51.276;6.390;2023-05-10T06:40:04;27.63;;;16.70;;
20997;SDS011;10657;51.276;6.390;2023-05-10T06:42:32;30.13;;;19.05;;
20997;SDS011;10657;51.276;6.390;2023-05-10T06:44:59;33.53;;;19.40;;
20997;SDS011;10657;51.276;6.390;2023-05-10T06:47:26;32.38;;;20.17;;
20997;SDS011;10657;51.276;6.390;2023-05-10T06:49:52;32.92;;;19.00;;
20997;SDS011;10657;51.276;6.390;2023-05-10T06:52:19;32.25;;;21.20;;
20997;SDS011;10657;51.276;6.390;2023-05-10T06:54:46;35.65;;;21.60;;
20997;SDS011;10657;51.276;6.390;2023-05-10T06:57:14;35.65;;;20.52;;
20997;SDS011;10657;51.276;6.390;2023-05-10T06:59:55;31.77;;;19.30;;
20997;SDS011;10657;51.276;6.390;2023-05-10T07:02:22;31.70;;;19.42;;
20997;SDS011;10657;51.276;6.390;2023-05-10T07:04:49;33.35;;;20.25;;
20997;SDS011;10657;51.276;6.390;2023-05-10T07:07:16;32.70;;;20.98;;
20997;SDS011;10657;51.276;6.390;2023-05-10T07:09:43;31.40;;;20.73;;
20997;SDS011;10657;51.276;6.390;2023-05-10T07:12:09;31.20;;;20.92;;
20997;SDS011;10657;51.276;6.390;2023-05-10T07:14:40;35.17;;;20.45;;
20997;SDS011;10657;51.276;6.390;2023-05-10T07:17:06;33.80;;;21.38;;
20997;SDS011;10657;51.276;6.390;2023-05-10T07:19:33;30.38;;;19.35;;
20997;SDS011;10657;51.276;6.390;2023-05-10T07:22:00;33.10;;;20.83;;
20997;SDS011;10657;51.276;6.390;2023-05-10T07:24:27;32.20;;;17.33;;
20997;SDS011;10657;51.276;6.390;2023-05-10T07:26:53;27.52;;;16.27;;
20997;SDS011;10657;51.276;6.390;2023-05-10T07:29:20;27.08;;;16.88;;
20997;SDS011;10657;51.276;6.390;2023-05-10T07:31:46;30.48;;;19.30;;
20997;SDS011;10657;51.276;6.390;2023-05-10T07:34:13;32.70;;;20.20;;
20997;SDS011;10657;51.276;6.390;2023-05-10T07:36:40;29.92;;;18.60;;
20997;SDS011;10657;51.276;6.390;2023-05-10T07:39:07;29.30;;;17.67;;
20997;SDS011;10657;51.276;6.390;2023-05-10T07:41:33;26.63;;;17.90;;
20997;SDS011;10657;51.276;6.390;2023-05-10T07:44:01;29.15;;;16.25;;
20997;SDS011;10657;51.276;6.390;2023-05-10T07:46:27;27.05;;;16.08;;
20997;SDS011;10657;51.276;6.390;2023-05-10T07:48:54;27.23;;;19.13;;
20997;SDS011;10657;51.276;6.390;2023-05-10T07:51:21;25.90;;;17.67;;
20997;SDS011;10657;51.276;6.390;2023-05-10T07:53:48;31.88;;;18.20;;
20997;SDS011;10657;51.276;6.390;2023-05-10T07:58:53;24.80;;;14.73;;
20997;SDS011;10657;51.276;6.390;2023-05-10T08:01:20;28.67;;;18.17;;
20997;SDS011;10657;51.276;6.390;2023-05-10T08:03:48;22.75;;;13.82;;
20997;SDS011;10657;51.276;6.390;2023-05-10T08:06:15;26.58;;;17.33;;
20997;SDS011;10657;51.276;6.390;2023-05-10T08:08:43;29.50;;;17.90;;
20997;SDS011;10657;51.276;6.390;2023-05-10T08:11:15;26.75;;;14.70;;
20997;SDS011;10657;51.276;6.390;2023-05-10T08:13:43;24.23;;;15.38;;
20997;SDS011;10657;51.276;6.390;2023-05-10T08:16:10;27.33;;;16.48;;
20997;SDS011;10657;51.276;6.390;2023-05-10T08:18:38;26.52;;;15.80;;
20997;SDS011;10657;51.276;6.390;2023-05-10T08:21:05;23.73;;;15.23;;
20997;SDS011;10657;51.276;6.390;2023-05-10T08:23:32;23.13;;;14.80;;
20997;SDS011;10657;51.276;6.390;2023-05-10T08:25:59;26.58;;;15.60;;
20997;SDS011;10657;51.276;6.390;2023-05-10T08:28:26;22.95;;;14.48;;
20997;SDS011;10657;51.276;6.390;2023-05-10T08:30:53;23.77;;;15.48;;
20997;SDS011;10657;51.276;6.390;2023-05-10T08:33:19;21.48;;;13.65;;
20997;SDS011;10657;51.276;6.390;2023-05-10T08:35:46;20.35;;;12.35;;
20997;SDS011;10657;51.276;6.390;2023-05-10T08:38:13;22.95;;;14.77;;
20997;SDS011;10657;51.276;6.390;2023-05-10T08:40:41;18.38;;;12.07;;
20997;SDS011;10657;51.276;6.390;2023-05-10T08:43:09;25.13;;;13.10;;
20997;SDS011;10657;51.276;6.390;2023-05-10T08:45:41;23.05;;;14.13;;
20997;SDS011;10657;51.276;6.390;2023-05-10T08:48:10;20.92;;;12.70;;
20997;SDS011;10657;51.276;6.390;2023-05-10T08:50:38;21.05;;;12.75;;
20997;SDS011;10657;51.276;6.390;2023-05-10T08:53:06;20.65;;;12.73;;
20997;SDS011;10657;51.276;6.390;2023-05-10T08:55:36;19.50;;;12.63;;
20997;SDS011;10657;51.276;6.390;2023-05-10T08:58:05;20.42;;;13.55;;
20997;SDS011;10657;51.276;6.390;2023-05-10T09:00:32;22.73;;;13.68;;
20997;SDS011;10657;51.276;6.390;2023-05-10T09:03:00;20.83;;;14.57;;
20997;SDS011;10657;51.276;6.390;2023-05-10T09:05:27;18.60;;;11.85;;
20997;SDS011;10657;51.276;6.390;2023-05-10T09:07:54;21.70;;;13.50;;
20997;SDS011;10657;51.276;6.390;2023-05-10T09:10:21;21.48;;;13.10;;
20997;SDS011;10657;51.276;6.390;2023-05-10T09:12:50;19.52;;;13.48;;
20997;SDS011;10657;51.276;6.390;2023-05-10T09:15:17;22.08;;;13.00;;
20997;SDS011;10657;51.276;6.390;2023-05-10T09:17:45;20.55;;;13.25;;
20997;SDS011;10657;51.276;6.390;2023-05-10T09:20:13;19.73;;;11.52;;
20997;SDS011;10657;51.276;6.390;2023-05-10T09:22:40;20.20;;;13.68;;
20997;SDS011;10657;51.276;6.390;2023-05-10T09:25:07;20.58;;;12.00;;
20997;SDS011;10657;51.276;6.390;2023-05-10T09:27:35;21.20;;;13.25;;
20997;SDS011;10657;51.276;6.390;2023-05-10T09:30:02;20.65;;;13.02;;
20997;SDS011;10657;51.276;6.390;2023-05-10T09:32:41;24.48;;;15.75;;
20997;SDS011;10657;51.276;6.390;2023-05-10T09:35:19;20.13;;;11.90;;
20997;SDS011;10657;51.276;6.390;2023-05-10T09:37:48;23.15;;;15.20;;
20997;SDS011;10657;51.276;6.390;2023-05-10T09:40:16;24.90;;;13.98;;
20997;SDS011;10657;51.276;6.390;2023-05-10T09:43:17;20.48;;;12.43;;
20997;SDS011;10657;51.276;6.390;2023-05-10T09:45:37;20.17;;;12.57;;
20997;SDS011;10657;51.276;6.390;2023-05-10T09:48:04;21.70;;;13.13;;
20997;SDS011;10657;51.276;6.390;2023-05-10T09:50:32;21.10;;;14.00;;
20997;SDS011;10657;51.276;6.390;2023-05-10T09:53:00;22.92;;;13.88;;
20997;SDS011;10657;51.276;6.390;2023-05-10T09:58:05;21.55;;;12.32;;
20997;SDS011;10657;51.276;6.390;2023-05-10T10:00:36;22.15;;;14.05;;
20997;SDS011;10657;51.276;6.390;2023-05-10T10:03:04;25.23;;;15.35;;
20997;SDS011;10657;51.276;6.390;2023-05-10T10:05:35;25.77;;;15.15;;
20997;SDS011;10657;51.276;6.390;2023-05-10T10:08:03;21.65;;;15.23;;
20997;SDS011;10657;51.276;6.390;2023-05-10T10:10:30;21.77;;;13.18;;
20997;SDS011;10657;51.276;6.390;2023-05-10T10:12:58;24.77;;;12.98;;
20997;SDS011;10657;51.276;6.390;2023-05-10T10:15:26;23.77;;;14.73;;
20997;SDS011;10657;51.276;6.390;2023-05-10T10:17:52;21.42;;;14.25;;
20997;SDS011;10657;51.276;6.390;2023-05-10T10:20:21;20.50;;;14.43;;
20997;SDS011;10657;51.276;6.390;2023-05-10T10:22:48;23.15;;;12.57;;
20997;SDS011;10657;51.276;6.390;2023-05-10T10:25:16;23.70;;;15.35;;
20997;SDS011;10657;51.276;6.390;2023-05-10T10:36:00;23.33;;;16.38;;
20997;SDS011;10657;51.276;6.390;2023-05-10T10:47:04;25.33;;;14.38;;
20997;SDS011;10657;51.276;6.390;2023-05-10T10:54:50;20.85;;;13.55;;
20997;SDS011;10657;51.276;6.390;2023-05-10T10:57:23;19.50;;;14.73;;
20997;SDS011;10657;51.276;6.390;2023-05-10T10:59:49;21.65;;;13.48;;
20997;SDS011;10657;51.276;6.390;2023-05-10T11:07:54;18.67;;;13.70;;
20997;SDS011;10657;51.276;6.390;2023-05-10T11:10:22;19.63;;;13.57;;
20997;SDS011;10657;51.276;6.390;2023-05-10T11:13:03;18.13;;;13.75;;
20997;SDS011;10657;51.276;6.390;2023-05-10T11:15:39;17.35;;;11.68;;
20997;SDS011;10657;51.276;6.390;2023-05-10T11:18:16;18.55;;;12.48;;
20997;SDS011;10657;51.276;6.390;2023-05-10T11:23:59;17.77;;;11.30;;
20997;SDS011;10657;51.276;6.390;2023-05-10T11:26:23;20.95;;;12.80;;
20997;SDS011;10657;51.276;6.390;2023-05-10T11:28:52;21.05;;;13.20;;
20997;SDS011;10657;51.276;6.390;2023-05-10T11:31:24;22.25;;;13.63;;
20997;SDS011;10657;51.276;6.390;2023-05-10T11:33:56;20.95;;;13.20;;
20997;SDS011;10657;51.276;6.390;2023-05-10T11:36:25;23.02;;;13.98;;
20997;SDS011;10657;51.276;6.390;2023-05-10T11:38:58;17.45;;;12.77;;
20997;SDS011;10657;51.276;6.390;2023-05-10T11:41:27;20.52;;;13.55;;
20997;SDS011;10657;51.276;6.390;2023-05-10T11:43:55;19.85;;;11.88;;
20997;SDS011;10657;51.276;6.390;2023-05-10T11:46:24;19.77;;;13.23;;
20997;SDS011;10657;51.276;6.390;2023-05-10T11:48:53;17.95;;;12.02;;
20997;SDS011;10657;51.276;6.390;2023-05-10T11:51:24;19.75;;;12.27;;
20997;SDS011;10657;51.276;6.390;2023-05-10T11:53:52;22.65;;;12.50;;
20997;SDS011;10657;51.276;6.390;2023-05-10T11:56:20;20.80;;;15.05;;
20997;SDS011;10657;51.276;6.390;2023-05-10T11:58:52;25.50;;;16.77;;
20997;SDS011;10657;51.276;6.390;2023-05-10T12:01:20;22.63;;;15.25;;
20997;SDS011;10657;51.276;6.390;2023-05-10T12:03:49;24.77;;;17.67;;
20997;SDS011;10657;51.276;6.390;2023-05-10T12:06:17;24.95;;;18.25;;
20997;SDS011;10657;51.276;6.390;2023-05-10T12:08:46;24.90;;;17.50;;
20997;SDS011;10657;51.276;6.390;2023-05-10T12:11:14;27.67;;;17.13;;
20997;SDS011;10657;51.276;6.390;2023-05-10T12:13:43;23.85;;;16.67;;
20997;SDS011;10657;51.276;6.390;2023-05-10T12:16:13;25.13;;;17.25;;
20997;SDS011;10657;51.276;6.390;2023-05-10T12:18:44;26.40;;;17.95;;
20997;SDS011;10657;51.276;6.390;2023-05-10T12:21:14;24.85;;;17.08;;
20997;SDS011;10657;51.276;6.390;2023-05-10T12:23:41;25.13;;;16.92;;
20997;SDS011;10657;51.276;6.390;2023-05-10T12:26:08;27.00;;;18.67;;
20997;SDS011;10657;51.276;6.390;2023-05-10T12:28:36;28.27;;;20.48;;
20997;SDS011;10657;51.276;6.390;2023-05-10T12:31:05;25.10;;;17.33;;
20997;SDS011;10657;51.276;6.390;2023-05-10T12:33:39;25.90;;;16.80;;
20997;SDS011;10657;51.276;6.390;2023-05-10T12:36:11;23.85;;;15.65;;
20997;SDS011;10657;51.276;6.390;2023-05-10T12:38:40;27.70;;;18.25;;
20997;SDS011;10657;51.276;6.390;2023-05-10T12:41:14;27.60;;;18.02;;
20997;SDS011;10657;51.276;6.390;2023-05-10T12:43:42;26.70;;;15.00;;
20997;SDS011;10657;51.276;6.390;2023-05-10T12:48:39;21.58;;;13.65;;
20997;SDS011;10657;51.276;6.390;2023-05-10T12:51:06;23.08;;;15.60;;
20997;SDS011;10657;51.276;6.390;2023-05-10T12:53:39;22.50;;;14.35;;
20997;SDS011;10657;51.276;6.390;2023-05-10T12:56:09;23.30;;;15.93;;
20997;SDS011;10657;51.276;6.390;2023-05-10T12:58:36;22.83;;;15.55;;
20997;SDS011;10657;51.276;6.390;2023-05-10T13:01:03;22.45;;;15.45;;
20997;SDS011;10657;51.276;6.390;2023-05-10T13:03:31;20.20;;;12.43;;
20997;SDS011;10657;51.276;6.390;2023-05-10T13:05:57;22.65;;;14.13;;
20997;SDS011;10657;51.276;6.390;2023-05-10T13:08:24;19.65;;;12.35;;
20997;SDS011;10657;51.276;6.390;2023-05-10T13:10:51;19.50;;;13.38;;
20997;SDS011;10657;51.276;6.390;2023-05-10T13:13:17;20.48;;;13.55;;
20997;SDS011;10657;51.276;6.390;2023-05-10T13:15:44;19.25;;;12.32;;
20997;SDS011;10657;51.276;6.390;2023-05-10T13:18:11;21.13;;;13.65;;
20997;SDS011;10657;51.276;6.390;2023-05-10T13:20:38;20.75;;;13.18;;
20997;SDS011;10657;51.276;6.390;2023-05-10T13:23:04;17.60;;;12.35;;
20997;SDS011;10657;51.276;6.390;2023-05-10T13:25:31;19.48;;;13.55;;
20997;SDS011;10657;51.276;6.390;2023-05-10T13:27:58;18.70;;;10.25;;
20997;SDS011;10657;51.276;6.390;2023-05-10T13:30:24;18.20;;;11.85;;
20997;SDS011;10657;51.276;6.390;2023-05-10T13:32:51;18.08;;;13.00;;
20997;SDS011;10657;51.276;6.390;2023-05-10T13:35:18;17.80;;;11.45;;
20997;SDS011;10657;51.276;6.390;2023-05-10T13:37:44;17.40;;;12.85;;
20997;SDS011;10657;51.276;6.390;2023-05-10T13:40:11;18.38;;;11.35;;
20997;SDS011;10657;51.276;6.390;2023-05-10T13:42:38;16.23;;;9.82;;
20997;SDS011;10657;51.276;6.390;2023-05-10T13:45:05;13.45;;;7.97;;
20997;SDS011;10657;51.276;6.390;2023-05-10T13:47:32;12.10;;;6.80;;
20997;SDS011;10657;51.276;6.390;2023-05-10T13:49:58;14.25;;;8.65;;
20997;SDS011;10657;51.276;6.390;2023-05-10T13:52:25;13.05;;;7.95;;
20997;SDS011;10657;51.276;6.390;2023-05-10T13:54:52;15.88;;;9.32;;
20997;SDS011;10657;51.276;6.390;2023-05-10T13:57:21;13.02;;;8.70;;
20997;SDS011;10657;51.276;6.390;2023-05-10T13:59:49;14.27;;;9.90;;
20997;SDS011;10657;51.276;6.390;2023-05-10T14:02:15;14.70;;;8.80;;
20997;SDS011;10657;51.276;6.390;2023-05-10T14:04:42;12.30;;;7.35;;
20997;SDS011;10657;51.276;6.390;2023-05-10T14:07:09;12.98;;;6.40;;
20997;SDS011;10657;51.276;6.390;2023-05-10T14:09:36;12.55;;;7.63;;
20997;SDS011;10657;51.276;6.390;2023-05-10T14:12:02;12.88;;;7.57;;
20997;SDS011;10657;51.276;6.390;2023-05-10T14:14:29;14.77;;;7.68;;
20997;SDS011;10657;51.276;6.390;2023-05-10T14:16:56;13.10;;;6.97;;
20997;SDS011;10657;51.276;6.390;2023-05-10T14:19:23;13.45;;;7.13;;
20997;SDS011;10657;51.276;6.390;2023-05-10T14:21:49;14.27;;;8.77;;
20997;SDS011;10657;51.276;6.390;2023-05-10T14:24:17;14.70;;;8.35;;
20997;SDS011;10657;51.276;6.390;2023-05-10T14:26:44;13.57;;;9.27;;
20997;SDS011;10657;51.276;6.390;2023-05-10T14:29:11;18.02;;;9.65;;
20997;SDS011;10657;51.276;6.390;2023-05-10T14:31:38;15.50;;;9.93;;
20997;SDS011;10657;51.276;6.390;2023-05-10T14:34:04;15.27;;;9.65;;
20997;SDS011;10657;51.276;6.390;2023-05-10T14:36:31;14.27;;;9.48;;
20997;SDS011;10657;51.276;6.390;2023-05-10T14:38:58;16.85;;;10.30;;
20997;SDS011;10657;51.276;6.390;2023-05-10T14:41:25;14.75;;;9.48;;
20997;SDS011;10657;51.276;6.390;2023-05-10T14:43:52;11.90;;;7.90;;
20997;SDS011;10657;51.276;6.390;2023-05-10T14:46:19;16.13;;;9.25;;
20997;SDS011;10657;51.276;6.390;2023-05-10T14:48:45;17.55;;;10.10;;
20997;SDS011;10657;51.276;6.390;2023-05-10T14:51:12;17.30;;;9.52;;
20997;SDS011;10657;51.276;6.390;2023-05-10T14:53:39;15.00;;;9.85;;
20997;SDS011;10657;51.276;6.390;2023-05-10T14:56:06;15.50;;;9.55;;
20997;SDS011;10657;51.276;6.390;2023-05-10T14:58:33;11.73;;;7.00;;
20997;SDS011;10657;51.276;6.390;2023-05-10T15:00:59;13.60;;;8.98;;
20997;SDS011;10657;51.276;6.390;2023-05-10T15:03:27;13.68;;;8.75;;
20997;SDS011;10657;51.276;6.390;2023-05-10T15:05:55;16.38;;;9.60;;
20997;SDS011;10657;51.276;6.390;2023-05-10T15:08:23;14.90;;;9.85;;
20997;SDS011;10657;51.276;6.390;2023-05-10T15:10:53;10.70;;;6.43;;
20997;SDS011;10657;51.276;6.390;2023-05-10T15:13:21;8.73;;;4.55;;
20997;SDS011;10657;51.276;6.390;2023-05-10T15:15:48;12.35;;;6.13;;
20997;SDS011;10657;51.276;6.390;2023-05-10T15:18:15;7.32;;;3.90;;
20997;SDS011;10657;51.276;6.390;2023-05-10T15:20:41;8.70;;;4.90;;
20997;SDS011;10657;51.276;6.390;2023-05-10T15:23:08;8.48;;;4.95;;
20997;SDS011;10657;51.276;6.390;2023-05-10T15:25:35;8.48;;;5.22;;